ADDS METAR Data INFO
IDs: Format: Raw Decoded Include TAF

Data at: 2246 UTC 16 Jan 2018

KHLX 162235Z AUTO 18004KT 10SM OVC090 01/M07 A3022 RMK AO2 T00061070
KHLX 162215Z AUTO 17004KT 10SM OVC090 01/M07 A3021 RMK AO2 T00101069
KHLX 162155Z AUTO 16004KT 10SM OVC100 02/M07 A3021 RMK AO2 T00171069
KHLX 162135Z AUTO 17004KT 10SM BKN110 02/M07 A3022 RMK AO2 T00241069
KHLX 162115Z AUTO 19004KT 10SM SCT120 03/M07 A3022 RMK AO2 T00281067
KHLX 162055Z AUTO 18003KT 10SM SCT120 03/M07 A3021 RMK AO2 T00311067
KHLX 162035Z AUTO 20007KT 10SM CLR 04/M07 A3022 RMK AO2 T00351068
KHLX 162015Z AUTO 19005KT 10SM CLR 04/M07 A3022 RMK AO2 T00411066
KHLX 161955Z AUTO 19004KT 10SM CLR 04/M07 A3022 RMK AO2 T00391068
KHLX 161935Z AUTO 16003KT 10SM CLR 04/M07 A3022 RMK AO2 T00371066
KHLX 161915Z AUTO 19005KT 10SM CLR 04/M07 A3023 RMK AO2 T00411066
KHLX 161855Z AUTO 17006KT 10SM SCT085 04/M07 A3023 RMK AO2 T00391070
KHLX 161835Z AUTO 19006KT 10SM CLR 04/M07 A3024 RMK AO2 T00441068
KHLX 161815Z AUTO 17005KT 10SM CLR 04/M06 A3024 RMK AO2 T00431065
KHLX 161755Z AUTO 17004KT 10SM CLR 05/M06 A3025 RMK AO2 T00491059 10049 21055
KHLX 161735Z AUTO 18005KT 10SM CLR 05/M06 A3026 RMK AO2 T00481058
KHLX 161715Z AUTO 21004KT 10SM CLR 04/M06 A3027 RMK AO2 T00401060
KHLX 161655Z AUTO 00000KT 10SM CLR 03/M06 A3029 RMK AO2 T00331062
KHLX 161635Z AUTO 16004KT 10SM CLR 03/M06 A3030 RMK AO2 T00301062
KHLX 161615Z AUTO 00000KT 10SM CLR 02/M06 A3031 RMK AO2 T00201062
KHLX 161555Z AUTO 12003KT 10SM CLR 01/M07 A3032 RMK AO2 T00131067
KHLX 161535Z AUTO 00000KT 10SM CLR 00/M07 A3032 RMK AO2 T00001073
KHLX 161515Z AUTO 00000KT 10SM CLR M01/M08 A3032 RMK AO2 T10101078
KHLX 161455Z AUTO 19003KT 10SM CLR M02/M08 A3032 RMK AO2 T10171077
KHLX 161435Z AUTO 21003KT 10SM CLR M02/M08 A3032 RMK AO2 T10221084
KHLX 161415Z AUTO 20004KT 10SM CLR M03/M09 A3031 RMK AO2 T10301090
KHLX 161355Z AUTO 00000KT 10SM CLR M03/M09 A3031 RMK AO2 T10341090
KHLX 161335Z AUTO 00000KT 10SM CLR M04/M09 A3031 RMK AO2 T10361093
KHLX 161315Z AUTO 12003KT 10SM CLR M05/M09 A3029 RMK AO2 T10501092
KHLX 161255Z AUTO 00000KT 10SM CLR M05/M10 A3030 RMK AO2 T10491099
KHLX 161235Z AUTO 00000KT 10SM CLR M05/M10 A3029 RMK AO2 T10551104
KHLX 161215Z AUTO 00000KT 10SM CLR M05/M11 A3029 RMK AO2 T10521107
KHLX 161155Z AUTO 18003KT 10SM CLR M05/M11 A3029 RMK AO2 T10481107 11043 21055
KHLX 161135Z AUTO 00000KT 10SM CLR M05/M11 A3029 RMK AO2 T10481106
KHLX 161115Z AUTO 00000KT 10SM CLR M05/M11 A3029 RMK AO2 T10501107
KHLX 161055Z AUTO 20005KT 10SM CLR M04/M11 A3028 RMK AO2 T10451106
KHLX 161035Z AUTO 18004KT 10SM CLR M05/M11 A3028 RMK AO2 T10491109
KHLX 161015Z AUTO 21005KT 10SM CLR M05/M11 A3028 RMK AO2 T10481107
KHLX 160955Z AUTO 19005KT 10SM CLR M04/M11 A3028 RMK AO2 T10451107
KHLX 160935Z AUTO 22004KT 10SM CLR M05/M11 A3028 RMK AO2 T10501110
KHLX 160915Z AUTO 29003KT 10SM CLR M05/M11 A3028 RMK AO2 T10521110
KHLX 160855Z AUTO 16003KT 10SM CLR M05/M11 A3027 RMK AO2 T10551107
KHLX 160835Z AUTO 17005KT 10SM SCT120 M05/M11 A3029 RMK AO2 T10481112
KHLX 160815Z AUTO 18005KT 10SM SCT120 M04/M11 A3030 RMK AO2 T10451114
KHLX 160755Z AUTO 17004KT 10SM SCT120 M05/M11 A3030 RMK AO2 T10471114
KHLX 160735Z AUTO 20004KT 10SM CLR M04/M12 A3030 RMK AO2 T10451118
KHLX 160715Z AUTO 17003KT 10SM CLR M05/M12 A3029 RMK AO2 T10471120
KHLX 160655Z AUTO 18004KT 10SM CLR M05/M12 A3029 RMK AO2 T10471120
KHLX 160635Z AUTO 16005KT 10SM SCT120 M05/M12 A3029 RMK AO2 T10481123
KHLX 160610Z AUTO 17006KT 10SM BKN120 M05/M12 A3030 RMK AO2 T10461122
KHLX 160555Z AUTO 18005KT 10SM OVC120 M04/M12 A3030 RMK AO2 T10451121 11035 21050
KHLX 160535Z AUTO 18006KT 10SM BKN120 M05/M12 A3030 RMK AO2 T10461124
KHLX 160515Z AUTO 18006KT 10SM SCT120 M05/M12 A3030 RMK AO2 T10481125
KHLX 160455Z AUTO 16005KT 10SM CLR M05/M12 A3031 RMK AO2 T10471125 400221129
KHLX 160435Z AUTO 17005KT 10SM CLR M05/M12 A3032 RMK AO2 T10471120
KHLX 160415Z AUTO 19004KT 10SM CLR M04/M12 A3032 RMK AO2 T10451122
KHLX 160355Z AUTO 17004KT 10SM CLR M04/M12 A3032 RMK AO2 T10451120
KHLX 160335Z AUTO 16006KT 10SM CLR M04/M12 A3032 RMK AO2 T10421120
KHLX 160315Z AUTO 17005KT 10SM CLR M04/M12 A3032 RMK AO2 T10401121
KHLX 160255Z AUTO 18006KT 10SM CLR M04/M12 A3032 RMK AO2 T10411120
KHLX 160235Z AUTO 18006KT 10SM CLR M04/M12 A3032 RMK AO2 T10401119
KHLX 160215Z AUTO 17005KT 10SM CLR M04/M12 A3032 RMK AO2 T10401120
KHLX 160155Z AUTO 19004KT 10SM CLR M04/M12 A3032 RMK AO2 T10401120
KHLX 160135Z AUTO 17004KT 10SM SCT120 M04/M12 A3031 RMK AO2 T10381118
KHLX 160115Z AUTO 19005KT 10SM CLR M04/M12 A3032 RMK AO2 T10361119
KHLX 160055Z AUTO 18003KT 10SM CLR M04/M12 A3031 RMK AO2 T10361116
KHLX 160035Z AUTO 15003KT 10SM CLR M04/M12 A3029 RMK AO2 T10371120
KHLX 160015Z AUTO 18004KT 10SM CLR M04/M12 A3030 RMK AO2 T10371119
KHLX 152355Z AUTO 17003KT 10SM CLR M03/M12 A3031 RMK AO2 T10351117 10022 21035
KHLX 152335Z AUTO 19004KT 10SM CLR M03/M12 A3030 RMK AO2 T10321117
KHLX 152315Z AUTO 18003KT 10SM CLR M03/M12 A3029 RMK AO2 T10301117
KHLX 152255Z AUTO 17005KT 10SM CLR M02/M11 A3029 RMK AO2 T10251115
KHLX 152235Z AUTO 16004KT 10SM CLR M02/M11 A3028 RMK AO2 T10201114
KHLX 152215Z AUTO 16007KT 10SM CLR M01/M11 A3028 RMK AO2 T10141113
KHLX 152155Z AUTO 17004KT 10SM CLR 00/M11 A3028 RMK AO2 T10011106
KHLX 152135Z AUTO 19004KT 10SM CLR 01/M10 A3028 RMK AO2 T00121099
KHLX 152115Z AUTO 17005KT 10SM CLR 02/M09 A3028 RMK AO2 T00161093
KHLX 152055Z AUTO 14004KT 10SM CLR 02/M09 A3026 RMK AO2 T00171093
KHLX 152035Z AUTO 18003KT 10SM CLR 02/M09 A3026 RMK AO2 T00211089
KHLX 152015Z AUTO 23006KT 10SM CLR 02/M09 A3027 RMK AO2 T00201086
KHLX 151955Z AUTO 21004KT 10SM CLR 02/M09 A3027 RMK AO2 T00181093
KHLX 151935Z AUTO 19003KT 10SM CLR 01/M10 A3026 RMK AO2 T00081103
KHLX 151915Z AUTO 21009KT 10SM CLR 01/M10 A3027 RMK AO2 T00071099
KHLX 151855Z AUTO 24004KT 10SM CLR 00/M10 A3028 RMK AO2 T00001105
KHLX 151835Z AUTO 22008KT 10SM CLR 00/M10 A3029 RMK AO2 T00001103
KHLX 151815Z AUTO 27004KT 10SM CLR 00/M11 A3029 RMK AO2 T10041108
KHLX 151755Z AUTO 24004KT 10SM CLR M01/M11 A3029 RMK AO2 T10081112 11008 21129
KHLX 151735Z AUTO 21003KT 10SM CLR M02/M11 A3031 RMK AO2 T10171115
KHLX 151715Z AUTO 23004KT 10SM CLR M02/M11 A3032 RMK AO2 T10201113
KHLX 151655Z AUTO 12003KT 10SM CLR M03/M12 A3032 RMK AO2 T10341119
KHLX 151635Z AUTO 00000KT 10SM CLR M04/M11 A3034 RMK AO2 T10401115
KHLX 151615Z AUTO 11004KT 10SM SCT030 M04/M11 A3035 RMK AO2 T10441113
KHLX 151555Z AUTO 00000KT 10SM SCT030 M06/M13 A3037 RMK AO2 T10631129
KHLX 151535Z AUTO 25004KT 10SM SCT033 SCT100 M07/M14 A3039 RMK AO2 T10681136
KHLX 151515Z AUTO 19004KT 10SM SCT036 SCT100 M07/M14 A3038 RMK AO2 T10751136
KHLX 151455Z AUTO 22003KT 10SM SCT036 M08/M15 A3037 RMK AO2 T10791147
KHLX 151435Z AUTO 00000KT 10SM SCT036 M09/M16 A3037 RMK AO2 T10881156
KHLX 151415Z AUTO 21003KT 10SM SCT042 M10/M15 A3038 RMK AO2 T10961154
KHLX 151355Z AUTO 00000KT 10SM OVC042 M10/M14 A3037 RMK AO2 T11011144
KHLX 151335Z AUTO 00000KT 10SM OVC041 M10/M15 A3037 RMK AO2 T11051155
KHLX 151315Z AUTO 00000KT 10SM OVC043 M11/M15 A3037 RMK AO2 T11071152
KHLX 151255Z AUTO 00000KT 10SM BKN049 M11/M14 A3036 RMK AO2 T11131145
KHLX 151235Z AUTO 00000KT 10SM SCT049 M12/M15 A3036 RMK AO2 T11211155
KHLX 151215Z AUTO 00000KT 10SM CLR M13/M15 A3036 RMK AO2 T11281151
KHLX 151155Z AUTO 00000KT 10SM CLR M12/M15 A3035 RMK AO2 T11221152 11098 21127
KHLX 151135Z AUTO 00000KT 10SM CLR M12/M15 A3035 RMK AO2 T11211155
KHLX 151115Z AUTO 00000KT 10SM CLR M12/M15 A3035 RMK AO2 T11251154
KHLX 151055Z AUTO 00000KT 10SM CLR M12/M16 A3034 RMK AO2 T11231157